Time;durP1;ratioP1;P1;durP2;ratioP2;P2;SDS_P1;SDS_P2;PMS_P1;PMS_P2;Temp;Humidity;BMP_temperature;BMP_pressure;BME280_temperature;BME280_humidity;BME280_pressure;Samples;Min_cycle;Max_cycle;Signal;HPM_P1;HPM_P2
2022/02/20 00:00:39;;;;;;;10.07;2.97;;;8.30;99.90;;;;;;5073399;28;20444;-64
2022/02/20 00:03:07;;;;;;;11.17;3.73;;;8.30;99.90;;;;;;5073200;28;20511;-64
2022/02/20 00:05:36;;;;;;;6.87;1.97;;;8.20;99.90;;;;;;5073061;28;20452;-64
2022/02/20 00:08:03;;;;;;;12.00;4.43;;;8.30;99.90;;;;;;5072995;28;20483;-64
2022/02/20 00:10:29;;;;;;;8.90;2.97;;;8.30;99.90;;;;;;5073043;28;20451;-64
2022/02/20 00:12:57;;;;;;;7.20;2.70;;;8.20;99.90;;;;;;5073141;28;20445;-64
2022/02/20 00:15:24;;;;;;;6.50;1.87;;;8.20;99.90;;;;;;5072678;28;20484;-64
2022/02/20 00:17:53;;;;;;;6.30;2.73;;;8.10;99.90;;;;;;5072974;28;20468;-64
2022/02/20 00:20:22;;;;;;;7.37;2.00;;;8.10;99.90;;;;;;5073131;28;20467;-64
2022/02/20 00:22:49;;;;;;;5.33;2.20;;;8.00;99.90;;;;;;5072815;28;20804;-64
2022/02/20 00:25:16;;;;;;;4.83;2.23;;;7.90;99.90;;;;;;5073068;28;20444;-63
2022/02/20 00:27:43;;;;;;;9.93;2.33;;;7.90;99.90;;;;;;5074997;28;20868;-64
2022/02/20 00:30:10;;;;;;;6.13;1.80;;;7.80;99.90;;;;;;5076884;28;20448;-64
2022/02/20 00:32:37;;;;;;;3.00;1.73;;;7.70;99.90;;;;;;5076412;28;20445;-64
2022/02/20 00:35:04;;;;;;;5.27;2.23;;;7.70;99.90;;;;;;5076531;28;20480;-64
2022/02/20 00:37:32;;;;;;;6.77;2.27;;;7.70;99.90;;;;;;5076577;28;20461;-64
2022/02/20 00:39:59;;;;;;;7.40;2.90;;;7.60;99.90;;;;;;5076535;28;20455;-64
2022/02/20 00:42:26;;;;;;;8.87;2.40;;;7.60;99.90;;;;;;5076464;28;20448;-63
2022/02/20 00:44:53;;;;;;;6.90;3.67;;;7.60;99.90;;;;;;5076362;28;20440;-63
2022/02/20 00:47:19;;;;;;;4.57;2.30;;;7.60;99.90;;;;;;5076383;28;20830;-64
2022/02/20 00:49:46;;;;;;;6.03;2.63;;;7.60;99.90;;;;;;5076406;28;20425;-64
2022/02/20 00:52:13;;;;;;;6.40;2.97;;;7.70;99.90;;;;;;5076031;28;20455;-63
2022/02/20 00:54:41;;;;;;;6.73;2.47;;;7.70;99.90;;;;;;5076130;28;20445;-63
2022/02/20 00:57:08;;;;;;;6.73;3.10;;;7.70;99.90;;;;;;5076234;28;20477;-63
2022/02/20 00:59:34;;;;;;;6.03;1.90;;;7.70;99.90;;;;;;5076144;28;20443;-63
2022/02/20 01:02:01;;;;;;;4.30;2.60;;;7.70;99.90;;;;;;5076172;28;20460;-63
2022/02/20 01:04:28;;;;;;;8.30;3.40;;;7.70;99.90;;;;;;5076119;28;20452;-63
2022/02/20 01:06:55;;;;;;;6.70;2.73;;;7.70;99.90;;;;;;5075696;28;20484;-64
2022/02/20 01:09:22;;;;;;;6.67;2.80;;;7.70;99.90;;;;;;5076045;28;20799;-64
2022/02/20 01:11:50;;;;;;;5.67;3.20;;;7.70;99.90;;;;;;5075630;28;20452;-64
2022/02/20 01:14:18;;;;;;;7.17;3.50;;;7.60;99.90;;;;;;5075952;28;20544;-64
2022/02/20 01:16:45;;;;;;;9.87;3.00;;;7.50;99.90;;;;;;5075447;28;20900;-64
2022/02/20 01:19:12;;;;;;;7.17;3.30;;;7.50;99.90;;;;;;5075802;28;20445;-64
2022/02/20 01:21:39;;;;;;;8.53;3.40;;;7.50;99.90;;;;;;5075827;28;20523;-63
2022/02/20 01:24:07;;;;;;;5.67;3.80;;;7.50;99.90;;;;;;5075394;28;20449;-64
2022/02/20 01:26:33;;;;;;;5.10;4.43;;;7.40;99.90;;;;;;5075637;28;20481;-64
2022/02/20 01:29:01;;;;;;;10.83;4.10;;;7.40;99.90;;;;;;5075371;28;20813;-63
2022/02/20 01:31:28;;;;;;;8.27;4.57;;;7.30;99.90;;;;;;5075714;28;20443;-63
2022/02/20 01:33:55;;;;;;;5.23;4.30;;;7.20;99.90;;;;;;5075369;28;20931;-63
2022/02/20 01:36:22;;;;;;;5.17;4.67;;;7.10;99.90;;;;;;5075078;28;20473;-64
2022/02/20 01:38:48;;;;;;;9.00;3.97;;;7.00;99.90;;;;;;5074391;28;20461;-64
2022/02/20 01:41:17;;;;;;;7.40;4.90;;;6.90;99.90;;;;;;5075387;28;20447;-64
2022/02/20 01:43:44;;;;;;;5.57;4.60;;;6.70;99.90;;;;;;5075414;28;20448;-64
2022/02/20 01:46:12;;;;;;;7.93;5.00;;;6.60;99.90;;;;;;5075330;28;20436;-64
2022/02/20 01:48:39;;;;;;;5.87;4.23;;;6.60;99.90;;;;;;5074878;28;20992;-64
2022/02/20 01:51:07;;;;;;;10.17;4.43;;;6.50;99.90;;;;;;5075226;28;20448;-64
2022/02/20 01:53:34;;;;;;;7.10;4.87;;;6.30;99.90;;;;;;5075180;28;20467;-64
2022/02/20 01:56:02;;;;;;;11.57;5.03;;;6.30;99.90;;;;;;5074807;28;20473;-64
2022/02/20 01:58:29;;;;;;;12.93;5.50;;;6.20;99.90;;;;;;5075095;28;20465;-63
2022/02/20 02:00:56;;;;;;;7.80;4.73;;;6.20;99.90;;;;;;5074734;28;20453;-64
2022/02/20 02:03:24;;;;;;;13.00;5.07;;;6.20;99.90;;;;;;5075005;28;20436;-64
2022/02/20 02:05:51;;;;;;;7.73;5.20;;;6.10;99.90;;;;;;5074760;28;20487;-64
2022/02/20 02:08:19;;;;;;;8.17;4.97;;;6.10;99.90;;;;;;5074567;28;20473;-64
2022/02/20 02:10:46;;;;;;;9.87;4.80;;;6.00;99.90;;;;;;5074974;28;20448;-64
2022/02/20 02:13:13;;;;;;;9.23;3.90;;;6.00;99.90;;;;;;5075028;28;20466;-64
2022/02/20 02:15:48;;;;;;;6.40;4.67;;;6.00;99.90;;;;;;5074829;28;20483;-64
2022/02/20 02:18:15;;;;;;;5.90;3.33;;;6.00;99.90;;;;;;5074730;28;20464;-64
2022/02/20 02:20:43;;;;;;;7.00;3.73;;;5.90;99.90;;;;;;5074830;28;20471;-64
2022/02/20 02:23:13;;;;;;;11.70;3.97;;;5.90;99.90;;;;;;5074920;28;20406;-63
2022/02/20 02:25:42;;;;;;;6.77;3.40;;;5.90;99.90;;;;;;5074476;28;20437;-63
2022/02/20 02:28:08;;;;;;;9.70;3.37;;;5.90;99.90;;;;;;5074638;28;20544;-64
2022/02/20 02:30:35;;;;;;;4.50;2.77;;;5.80;99.90;;;;;;5074626;28;20457;-63
2022/02/20 02:33:02;;;;;;;6.13;2.40;;;5.80;99.90;;;;;;5074472;28;20453;-63
2022/02/20 02:35:29;;;;;;;7.03;2.77;;;5.80;99.90;;;;;;5074154;28;20476;-63
2022/02/20 02:37:55;;;;;;;8.20;3.13;;;5.80;99.90;;;;;;5074526;28;20473;-63
2022/02/20 02:40:23;;;;;;;7.70;2.30;;;5.80;99.90;;;;;;5074448;28;20449;-63
2022/02/20 02:42:50;;;;;;;8.40;2.30;;;5.80;99.90;;;;;;5074378;28;20444;-63
2022/02/20 02:45:17;;;;;;;3.10;2.60;;;5.80;99.90;;;;;;5074247;28;20453;-63
2022/02/20 02:47:45;;;;;;;7.77;2.83;;;5.80;99.90;;;;;;5074073;28;20471;-64
2022/02/20 02:50:12;;;;;;;9.57;2.63;;;5.80;99.90;;;;;;5073625;28;20448;-64
2022/02/20 02:52:39;;;;;;;4.70;3.00;;;5.80;99.90;;;;;;5073716;28;20947;-63
2022/02/20 02:55:07;;;;;;;5.57;3.17;;;5.80;99.90;;;;;;5073660;28;20928;-64
2022/02/20 02:57:35;;;;;;;7.23;2.53;;;5.80;99.90;;;;;;5073945;28;20469;-64
2022/02/20 03:00:01;;;;;;;4.60;3.10;;;5.80;99.90;;;;;;5073874;28;20445;-64
2022/02/20 03:02:28;;;;;;;5.53;3.10;;;5.80;99.90;;;;;;5073844;28;20559;-64
2022/02/20 03:04:55;;;;;;;6.63;4.10;;;5.80;99.90;;;;;;5073845;28;20444;-64
2022/02/20 03:07:22;;;;;;;7.20;3.87;;;5.80;99.90;;;;;;5073475;28;20472;-64
2022/02/20 03:09:49;;;;;;;6.47;4.50;;;5.80;99.90;;;;;;5073721;28;20452;-64
2022/02/20 03:12:15;;;;;;;6.30;4.20;;;5.70;99.90;;;;;;5073704;28;20456;-64
2022/02/20 03:14:44;;;;;;;9.17;5.40;;;5.70;99.90;;;;;;5073623;28;20449;-64
2022/02/20 03:17:10;;;;;;;13.57;5.60;;;5.70;99.90;;;;;;5073506;28;20495;-64
2022/02/20 03:19:37;;;;;;;9.30;5.17;;;5.70;99.90;;;;;;5073623;28;20789;-64
2022/02/20 03:22:04;;;;;;;6.70;6.00;;;5.70;99.90;;;;;;5073278;28;20451;-64
2022/02/20 03:24:31;;;;;;;6.10;5.23;;;5.70;99.90;;;;;;5073691;28;20452;-64
2022/02/20 03:26:58;;;;;;;8.27;6.53;;;5.70;99.90;;;;;;5073651;28;20468;-64
2022/02/20 03:29:24;;;;;;;7.53;6.00;;;5.70;99.90;;;;;;5073719;28;20449;-64
2022/02/20 03:31:53;;;;;;;8.37;7.30;;;5.60;99.90;;;;;;5073640;28;20449;-63
2022/02/20 03:34:19;;;;;;;8.93;6.83;;;5.60;99.90;;;;;;5073766;28;20502;-64
2022/02/20 03:36:46;;;;;;;15.47;7.60;;;5.60;99.90;;;;;;5073597;28;20468;-64
2022/02/20 03:39:13;;;;;;;10.10;6.40;;;5.60;99.90;;;;;;5073583;28;20858;-64
2022/02/20 03:41:40;;;;;;;10.73;7.77;;;5.60;99.90;;;;;;5073455;28;20449;-63
2022/02/20 03:44:07;;;;;;;14.80;7.50;;;5.70;99.90;;;;;;5073162;28;20947;-64
2022/02/20 03:46:34;;;;;;;9.07;6.23;;;5.60;99.90;;;;;;5073434;28;20451;-64
2022/02/20 03:49:03;;;;;;;11.07;7.50;;;5.60;99.90;;;;;;5073317;28;20846;-64
2022/02/20 03:51:29;;;;;;;10.20;7.90;;;5.60;99.90;;;;;;5073288;28;20456;-64
2022/02/20 03:53:56;;;;;;;8.70;7.20;;;5.70;99.90;;;;;;5073259;28;20444;-64
2022/02/20 03:56:23;;;;;;;8.77;7.97;;;5.70;99.90;;;;;;5072839;28;20836;-64
2022/02/20 03:58:50;;;;;;;9.17;7.67;;;5.70;99.90;;;;;;5072872;28;20975;-64
2022/02/20 04:01:16;;;;;;;14.60;7.37;;;5.70;99.90;;;;;;5073375;28;20445;-64
2022/02/20 04:03:43;;;;;;;9.10;6.90;;;5.70;99.90;;;;;;5076931;28;21008;-64
2022/02/20 04:06:11;;;;;;;10.30;8.60;;;5.70;99.90;;;;;;5077158;28;20444;-64
2022/02/20 04:08:38;;;;;;;11.23;7.40;;;5.70;99.90;;;;;;5076753;28;20999;-64
2022/02/20 04:11:05;;;;;;;9.47;6.80;;;5.70;99.90;;;;;;5077119;28;20448;-64
2022/02/20 04:13:31;;;;;;;7.53;6.80;;;5.80;99.90;;;;;;5077084;28;20479;-64
2022/02/20 04:15:58;;;;;;;16.53;8.10;;;5.80;99.90;;;;;;5076955;28;20476;-64
2022/02/20 04:18:25;;;;;;;11.27;6.40;;;5.80;99.90;;;;;;5076693;28;20464;-64
2022/02/20 04:20:52;;;;;;;11.00;6.70;;;5.80;99.90;;;;;;5076989;28;20467;-64
2022/02/20 04:23:20;;;;;;;13.63;5.90;;;5.90;99.90;;;;;;5076940;28;20457;-64
2022/02/20 04:25:47;;;;;;;14.40;6.43;;;6.00;99.90;;;;;;5076919;28;20448;-64
2022/02/20 04:28:14;;;;;;;10.30;6.43;;;6.00;99.90;;;;;;5076839;28;20821;-64
2022/02/20 04:30:40;;;;;;;7.77;5.80;;;6.00;99.90;;;;;;5076761;28;20440;-64
2022/02/20 04:33:07;;;;;;;6.93;5.33;;;6.10;99.90;;;;;;5076808;28;20456;-64
2022/02/20 04:35:34;;;;;;;8.17;6.63;;;6.20;99.90;;;;;;5076691;28;20441;-64
2022/02/20 04:38:01;;;;;;;8.83;6.23;;;6.30;99.90;;;;;;5076160;28;20488;-64
2022/02/20 04:40:29;;;;;;;10.03;6.40;;;6.40;99.90;;;;;;5076286;28;20885;-64
2022/02/20 04:42:56;;;;;;;8.27;5.30;;;6.40;99.90;;;;;;5076502;28;20467;-64
2022/02/20 04:45:22;;;;;;;10.47;5.23;;;6.40;99.90;;;;;;5076143;28;20440;-64
2022/02/20 04:47:49;;;;;;;8.67;7.80;;;6.50;99.90;;;;;;5076354;28;20464;-64
2022/02/20 04:50:16;;;;;;;10.00;5.07;;;6.50;99.90;;;;;;5076123;28;20958;-64
2022/02/20 04:52:43;;;;;;;8.97;6.13;;;6.50;99.90;;;;;;5076352;28;20455;-64
2022/02/20 04:55:10;;;;;;;7.30;5.27;;;6.60;99.90;;;;;;5076286;28;20849;-64
2022/02/20 04:57:39;;;;;;;11.40;5.27;;;6.60;99.90;;;;;;5075767;28;20480;-64
2022/02/20 05:00:08;;;;;;;10.97;5.63;;;6.60;99.90;;;;;;5076860;28;20460;-64
2022/02/20 05:02:35;;;;;;;7.73;6.23;;;6.70;99.90;;;;;;5076172;28;20451;-64
2022/02/20 05:05:02;;;;;;;8.40;5.50;;;6.70;99.90;;;;;;5076100;28;20444;-64
2022/02/20 05:07:29;;;;;;;15.67;5.53;;;6.70;99.90;;;;;;5075779;28;20563;-64
2022/02/20 05:09:56;;;;;;;11.00;6.27;;;6.70;99.90;;;;;;5076010;28;20456;-64
2022/02/20 05:12:22;;;;;;;14.90;5.30;;;6.80;99.90;;;;;;5075981;28;20448;-64
2022/02/20 05:14:50;;;;;;;8.57;4.97;;;6.80;99.90;;;;;;5075978;28;20429;-64
2022/02/20 05:17:17;;;;;;;9.60;4.80;;;6.80;99.90;;;;;;5075734;28;20480;-64
2022/02/20 05:19:44;;;;;;;14.20;5.07;;;6.80;99.90;;;;;;5075455;28;20455;-64
2022/02/20 05:22:11;;;;;;;8.10;3.80;;;6.80;99.90;;;;;;5075625;28;20510;-64
2022/02/20 05:24:37;;;;;;;8.33;4.27;;;6.80;99.90;;;;;;5075779;28;20498;-64
2022/02/20 05:27:04;;;;;;;8.73;3.77;;;6.80;99.90;;;;;;5075357;28;20472;-64
2022/02/20 05:29:31;;;;;;;8.03;3.67;;;6.80;99.90;;;;;;5075349;28;20455;-64
2022/02/20 05:31:59;;;;;;;9.83;3.30;;;6.90;99.90;;;;;;5075570;28;20452;-64
2022/02/20 05:34:26;;;;;;;6.83;3.53;;;6.80;99.90;;;;;;5075305;28;20858;-64
2022/02/20 05:36:53;;;;;;;7.77;3.60;;;6.90;99.90;;;;;;5075355;28;20480;-64
2022/02/20 05:39:20;;;;;;;5.90;3.13;;;6.90;99.90;;;;;;5075562;28;20445;-64
2022/02/20 05:41:48;;;;;;;12.60;3.50;;;6.90;99.90;;;;;;5075178;28;20973;-64
2022/02/20 05:44:14;;;;;;;7.67;2.50;;;6.90;99.90;;;;;;5075486;28;20864;-64
2022/02/20 05:46:41;;;;;;;11.07;3.30;;;6.90;99.90;;;;;;5075437;28;20451;-66
2022/02/20 05:49:09;;;;;;;12.03;3.13;;;7.00;99.90;;;;;;5075054;28;20940;-65
2022/02/20 05:51:36;;;;;;;15.80;3.70;;;7.00;99.90;;;;;;5075306;28;20843;-65
2022/02/20 05:54:03;;;;;;;10.83;3.67;;;7.00;99.90;;;;;;5075159;28;20445;-64
2022/02/20 05:56:29;;;;;;;12.20;4.83;;;7.10;99.90;;;;;;5074876;28;20477;-64
2022/02/20 05:58:56;;;;;;;12.97;3.90;;;7.10;99.90;;;;;;5074729;28;20848;-65
2022/02/20 06:01:23;;;;;;;14.40;4.00;;;7.10;99.90;;;;;;5075028;28;20448;-64
2022/02/20 06:03:49;;;;;;;9.17;3.63;;;7.20;99.90;;;;;;5074993;28;20436;-64
2022/02/20 06:06:18;;;;;;;11.47;3.60;;;7.20;99.90;;;;;;5074900;28;20498;-65
2022/02/20 06:08:45;;;;;;;21.47;3.93;;;7.20;99.90;;;;;;5074473;28;20496;-64
2022/02/20 06:11:11;;;;;;;13.80;3.50;;;7.30;99.90;;;;;;5074898;28;20444;-64
2022/02/20 06:13:38;;;;;;;18.23;4.13;;;7.30;99.90;;;;;;5074889;28;20436;-64
2022/02/20 06:16:05;;;;;;;17.70;4.13;;;7.40;99.90;;;;;;5074707;28;20456;-64
2022/02/20 06:18:32;;;;;;;22.50;3.90;;;7.40;99.90;;;;;;5074640;28;20484;-64
2022/02/20 06:20:58;;;;;;;10.30;3.00;;;7.40;99.90;;;;;;5074338;28;20449;-64
2022/02/20 06:23:26;;;;;;;27.37;5.50;;;7.50;99.90;;;;;;5074595;28;20528;-64
2022/02/20 06:25:53;;;;;;;18.30;4.90;;;7.50;99.90;;;;;;5074086;28;20449;-64
2022/02/20 06:28:20;;;;;;;15.63;3.57;;;7.60;99.90;;;;;;5074992;28;20465;-65
2022/02/20 06:30:47;;;;;;;15.67;3.27;;;7.60;99.90;;;;;;5074943;28;20473;-64
2022/02/20 06:33:13;;;;;;;16.33;3.30;;;7.70;99.90;;;;;;5074889;28;20457;-64
2022/02/20 06:35:40;;;;;;;13.30;3.37;;;7.70;99.90;;;;;;5075120;28;20785;-64
2022/02/20 06:38:07;;;;;;;18.47;4.10;;;7.70;99.90;;;;;;5074145;28;20485;-64
2022/02/20 06:40:36;;;;;;;19.40;3.20;;;7.90;99.90;;;;;;5074234;28;20853;-64
2022/02/20 06:43:03;;;;;;;15.70;3.30;;;7.90;99.90;;;;;;5074415;28;20448;-64
2022/02/20 06:45:30;;;;;;;21.87;3.43;;;7.90;99.90;;;;;;5074386;28;20445;-64
2022/02/20 06:47:57;;;;;;;10.57;2.83;;;8.00;99.90;;;;;;5074362;28;20456;-64
2022/02/20 06:50:23;;;;;;;14.03;3.40;;;8.10;99.90;;;;;;5074128;28;20944;-64
2022/02/20 06:52:50;;;;;;;19.13;3.90;;;8.10;99.90;;;;;;5074024;28;20452;-64
2022/02/20 06:55:17;;;;;;;13.40;3.00;;;8.10;99.90;;;;;;5074163;28;20448;-64
2022/02/20 06:57:45;;;;;;;13.87;4.63;;;8.20;99.90;;;;;;5074057;28;20854;-65
2022/02/20 07:00:14;;;;;;;18.70;4.37;;;8.20;99.90;;;;;;5074018;28;20761;-64
2022/02/20 07:02:41;;;;;;;19.70;3.40;;;8.20;99.90;;;;;;5074103;28;20448;-64
2022/02/20 07:05:09;;;;;;;12.83;2.93;;;8.30;99.90;;;;;;5074353;28;20814;-64
2022/02/20 07:07:37;;;;;;;11.90;2.90;;;8.30;99.90;;;;;;5074077;28;20833;-64
2022/02/20 07:10:07;;;;;;;21.47;3.63;;;8.30;99.90;;;;;;5074794;28;20523;-64
2022/02/20 07:12:34;;;;;;;15.07;3.87;;;8.30;99.90;;;;;;5074882;28;20449;-65
2022/02/20 07:15:02;;;;;;;18.70;3.57;;;8.40;99.90;;;;;;5074510;28;20807;-64
2022/02/20 07:17:29;;;;;;;15.73;3.07;;;8.40;99.90;;;;;;5073972;28;20512;-64
2022/02/20 07:19:56;;;;;;;14.63;4.40;;;8.40;99.90;;;;;;5073938;28;20856;-64
2022/02/20 07:22:23;;;;;;;19.07;4.20;;;8.40;99.90;;;;;;5073444;28;20790;-64
2022/02/20 07:24:50;;;;;;;12.77;3.67;;;8.40;99.90;;;;;;5073453;28;20444;-64
2022/02/20 07:27:17;;;;;;;13.20;2.83;;;8.50;99.90;;;;;;5073607;28;20476;-64
2022/02/20 07:29:43;;;;;;;7.67;3.07;;;8.50;99.90;;;;;;5073329;28;20928;-64
2022/02/20 07:32:12;;;;;;;7.50;2.73;;;8.50;99.90;;;;;;5073238;28;20952;-65
2022/02/20 07:34:38;;;;;;;15.33;3.00;;;8.60;99.90;;;;;;5073848;28;20444;-69
2022/02/20 07:37:05;;;;;;;15.00;2.37;;;8.60;99.90;;;;;;5072447;28;21006;-69
2022/02/20 07:39:32;;;;;;;8.77;2.67;;;8.60;99.90;;;;;;5073544;28;20860;-69
2022/02/20 07:41:59;;;;;;;11.97;2.20;;;8.70;99.90;;;;;;5073463;28;20449;-68
2022/02/20 07:44:26;;;;;;;13.97;3.43;;;8.70;99.90;;;;;;5073452;28;20457;-68
2022/02/20 07:46:53;;;;;;;7.40;2.80;;;8.70;99.90;;;;;;5073253;28;20445;-69
2022/02/20 07:49:21;;;;;;;11.10;2.70;;;8.70;99.90;;;;;;5073385;28;20440;-68
2022/02/20 07:51:48;;;;;;;9.70;2.67;;;8.70;99.90;;;;;;5073336;28;20452;-68
2022/02/20 07:54:15;;;;;;;10.20;2.90;;;8.70;99.90;;;;;;5073033;28;20456;-68
2022/02/20 07:56:41;;;;;;;9.77;2.60;;;8.80;99.90;;;;;;5073156;28;20453;-66
2022/02/20 07:59:08;;;;;;;12.13;2.40;;;8.80;99.90;;;;;;5073268;28;20809;-65
2022/02/20 08:01:35;;;;;;;11.90;2.90;;;8.80;99.90;;;;;;5073202;28;20452;-65
2022/02/20 08:04:01;;;;;;;32.87;3.43;;;8.80;99.90;;;;;;5073254;28;20829;-65
2022/02/20 08:06:29;;;;;;;8.93;2.90;;;8.80;99.90;;;;;;5072980;28;20447;-65
2022/02/20 08:08:58;;;;;;;16.67;2.60;;;8.80;99.90;;;;;;5073093;28;20471;-65
2022/02/20 08:11:25;;;;;;;11.60;2.53;;;8.90;99.90;;;;;;5072724;28;20962;-65
2022/02/20 08:13:51;;;;;;;11.67;2.20;;;8.90;99.90;;;;;;5073082;28;20449;-65
2022/02/20 08:16:18;;;;;;;9.37;2.40;;;8.90;99.90;;;;;;5072963;28;20456;-65
2022/02/20 08:18:45;;;;;;;10.80;3.07;;;8.90;99.90;;;;;;5072842;28;20889;-65
2022/02/20 08:21:12;;;;;;;12.13;3.03;;;8.90;99.90;;;;;;5072980;28;20459;-65
2022/02/20 08:23:40;;;;;;;11.33;2.17;;;8.90;99.90;;;;;;5073051;28;20448;-65
2022/02/20 08:26:07;;;;;;;8.53;2.40;;;9.00;99.90;;;;;;5072915;28;20463;-65
2022/02/20 08:28:33;;;;;;;13.00;2.47;;;9.00;99.90;;;;;;5072889;28;20472;-65
2022/02/20 08:31:00;;;;;;;4.60;2.20;;;9.00;99.90;;;;;;5072908;28;20433;-65
2022/02/20 08:33:27;;;;;;;7.83;2.37;;;9.10;99.90;;;;;;5072849;28;20449;-65
2022/02/20 08:35:54;;;;;;;11.27;2.83;;;9.10;99.90;;;;;;5072573;28;20959;-65
2022/02/20 08:38:21;;;;;;;10.63;2.67;;;9.10;99.90;;;;;;5072715;28;20495;-66
2022/02/20 08:40:50;;;;;;;8.17;2.33;;;9.10;99.90;;;;;;5072912;28;20527;-65
2022/02/20 08:43:17;;;;;;;8.10;2.43;;;9.10;99.90;;;;;;5072976;28;20453;-65
2022/02/20 08:45:46;;;;;;;6.50;2.73;;;9.20;99.90;;;;;;5073443;28;20429;-65
2022/02/20 08:48:13;;;;;;;7.13;2.53;;;9.20;99.90;;;;;;5074258;28;20472;-65
2022/02/20 08:50:40;;;;;;;3.73;2.00;;;9.20;99.90;;;;;;5076556;28;20448;-65
2022/02/20 08:53:07;;;;;;;4.87;1.90;;;9.30;99.90;;;;;;5076353;28;20810;-66
2022/02/20 08:55:34;;;;;;;3.93;1.50;;;9.30;99.90;;;;;;5076389;28;20452;-65
2022/02/20 08:58:02;;;;;;;4.70;1.80;;;9.30;99.90;;;;;;5076233;28;20490;-65
2022/02/20 09:00:29;;;;;;;7.33;2.30;;;9.30;99.90;;;;;;5076517;28;20463;-65
2022/02/20 09:02:56;;;;;;;5.10;1.70;;;9.30;99.90;;;;;;5076454;28;20456;-65
2022/02/20 09:05:23;;;;;;;4.87;1.70;;;9.30;99.90;;;;;;5076329;28;20447;-65
2022/02/20 09:07:50;;;;;;;8.80;4.30;;;9.40;99.90;;;;;;5075862;28;20475;-65
2022/02/20 09:10:17;;;;;;;9.63;2.90;;;9.40;99.90;;;;;;5076077;28;20810;-66
2022/02/20 09:12:43;;;;;;;4.07;2.10;;;9.50;99.90;;;;;;5076006;28;20500;-66
2022/02/20 09:15:12;;;;;;;7.23;2.03;;;9.50;99.90;;;;;;5075902;28;20448;-68
2022/02/20 09:17:40;;;;;;;6.93;2.10;;;9.50;99.90;;;;;;5075795;28;20481;-65
2022/02/20 09:20:08;;;;;;;3.80;1.47;;;9.60;99.90;;;;;;5075562;28;20452;-68
2022/02/20 09:22:36;;;;;;;5.53;1.97;;;9.60;99.90;;;;;;5075808;28;20787;-68
2022/02/20 09:25:03;;;;;;;4.60;1.67;;;9.60;99.90;;;;;;5075814;28;20470;-68
2022/02/20 09:27:30;;;;;;;6.00;2.10;;;9.70;99.90;;;;;;5075695;28;20491;-68
2022/02/20 09:29:56;;;;;;;3.13;1.37;;;9.80;99.90;;;;;;5075414;28;20453;-68
2022/02/20 09:32:26;;;;;;;3.37;1.30;;;9.80;99.90;;;;;;5075842;28;20429;-68
2022/02/20 09:34:53;;;;;;;4.73;1.97;;;9.80;99.90;;;;;;5075595;28;20453;-68
2022/02/20 09:37:20;;;;;;;6.73;1.50;;;9.90;99.90;;;;;;5075498;28;20460;-68
2022/02/20 09:39:47;;;;;;;4.10;1.53;;;9.90;99.90;;;;;;5075564;28;20476;-68
2022/02/20 09:42:15;;;;;;;4.90;1.87;;;9.90;99.90;;;;;;5075437;28;20449;-68
2022/02/20 09:44:43;;;;;;;3.63;1.37;;;9.90;99.90;;;;;;5075072;28;20445;-67
2022/02/20 09:47:11;;;;;;;4.70;2.10;;;9.90;99.90;;;;;;5075318;28;20514;-68
2022/02/20 09:49:40;;;;;;;3.83;1.57;;;9.90;99.90;;;;;;5075339;28;20441;-67
2022/02/20 09:52:07;;;;;;;4.07;1.50;;;9.80;99.90;;;;;;5075004;28;20449;-67
2022/02/20 09:54:34;;;;;;;4.93;1.60;;;9.80;99.90;;;;;;5074912;28;20459;-67
2022/02/20 09:57:01;;;;;;;7.70;1.47;;;9.90;99.90;;;;;;5074805;28;20947;-67
2022/02/20 09:59:28;;;;;;;9.27;2.20;;;9.90;99.90;;;;;;5074231;28;20484;-67
2022/02/20 10:02:03;;;;;;;4.80;1.50;;;9.80;99.90;;;;;;5075100;28;20453;-67
2022/02/20 10:04:42;;;;;;;6.37;2.63;;;9.90;99.90;;;;;;5075022;28;20459;-67
2022/02/20 10:07:26;;;;;;;7.07;1.90;;;9.80;99.90;;;;;;5074658;28;20480;-65
2022/02/20 10:09:54;;;;;;;7.33;1.93;;;9.90;99.90;;;;;;5075007;28;20418;-65
2022/02/20 10:12:22;;;;;;;7.27;2.17;;;9.90;99.90;;;;;;5074720;28;20515;-64
2022/02/20 10:14:50;;;;;;;7.53;2.40;;;10.00;99.90;;;;;;5074791;28;20453;-66
2022/02/20 10:17:18;;;;;;;6.03;1.63;;;10.00;99.90;;;;;;5074770;28;20556;-65
2022/02/20 10:19:54;;;;;;;3.70;1.47;;;10.20;99.90;;;;;;5074599;28;20499;-65
2022/02/20 10:22:33;;;;;;;11.40;2.20;;;10.20;99.90;;;;;;5074525;28;20943;-65
2022/02/20 10:25:09;;;;;;;8.17;2.50;;;10.30;99.90;;;;;;5074677;28;20429;-66
2022/02/20 10:27:37;;;;;;;8.33;2.23;;;10.30;99.90;;;;;;5074500;28;20467;-66
2022/02/20 10:30:12;;;;;;;4.20;1.90;;;10.30;99.90;;;;;;5074547;28;20814;-65
2022/02/20 10:32:39;;;;;;;5.23;1.63;;;10.30;99.90;;;;;;5074481;28;20440;-65
2022/02/20 10:35:10;;;;;;;6.20;1.90;;;10.40;99.90;;;;;;5074461;28;20444;-65
2022/02/20 10:37:37;;;;;;;7.10;2.10;;;10.50;99.90;;;;;;5074279;28;20480;-65
2022/02/20 10:40:24;;;;;;;7.07;1.10;;;10.60;99.90;;;;;;5074908;28;20451;-65
2022/02/20 10:42:51;;;;;;;3.17;1.17;;;10.70;99.90;;;;;;5074501;28;20437;-66
2022/02/20 10:45:30;;;;;;;7.10;2.90;;;10.70;99.90;;;;;;5074162;28;20447;-66
2022/02/20 10:47:57;;;;;;;7.03;1.60;;;10.70;99.90;;;;;;5074250;28;20986;-66
2022/02/20 10:50:27;;;;;;;4.80;1.80;;;10.70;99.90;;;;;;5074660;28;20436;-65
2022/02/20 10:53:12;;;;;;;7.67;1.77;;;10.70;99.90;;;;;;5074299;28;20433;-66
2022/02/20 10:55:41;;;;;;;4.93;1.87;;;10.70;99.90;;;;;;5074215;28;20939;-65
2022/02/20 10:58:13;;;;;;;5.30;1.50;;;10.80;99.90;;;;;;5074155;28;20481;-66
2022/02/20 11:00:48;;;;;;;5.60;1.40;;;10.70;99.90;;;;;;5074186;28;20470;-65
2022/02/20 11:03:15;;;;;;;3.17;1.40;;;10.70;99.90;;;;;;5074209;28;20480;-65
2022/02/20 11:05:43;;;;;;;4.60;1.90;;;10.70;99.90;;;;;;5074007;28;20460;-65
2022/02/20 11:08:11;;;;;;;6.67;1.53;;;10.80;99.90;;;;;;5073640;28;20475;-65
2022/02/20 11:10:39;;;;;;;3.93;1.80;;;10.80;99.90;;;;;;5073861;28;20448;-65
2022/02/20 11:13:07;;;;;;;2.33;1.30;;;10.90;99.90;;;;;;5073835;28;20446;-65
2022/02/20 11:15:35;;;;;;;4.97;1.80;;;10.80;99.90;;;;;;5073877;28;20429;-65
2022/02/20 11:18:03;;;;;;;6.07;2.07;;;10.80;99.90;;;;;;5073525;28;20502;-65
2022/02/20 11:20:31;;;;;;;5.40;1.83;;;10.80;99.90;;;;;;5073651;28;20472;-65
2022/02/20 11:23:02;;;;;;;2.80;1.60;;;10.70;99.90;;;;;;5073368;28;20993;-66
2022/02/20 11:25:30;;;;;;;11.43;2.40;;;10.70;99.90;;;;;;5073715;28;20429;-65
2022/02/20 11:27:59;;;;;;;7.93;2.20;;;10.70;99.90;;;;;;5073491;28;20495;-66
2022/02/20 11:30:25;;;;;;;8.60;2.20;;;10.70;99.90;;;;;;5073575;28;20815;-65
2022/02/20 11:32:53;;;;;;;12.10;2.43;;;10.60;99.90;;;;;;5073654;28;20445;-65
2022/02/20 11:35:20;;;;;;;6.33;1.80;;;10.60;99.90;;;;;;5073567;28;20441;-65
2022/02/20 11:37:47;;;;;;;7.23;2.03;;;10.60;99.90;;;;;;5073160;28;20448;-66
2022/02/20 11:40:16;;;;;;;11.53;2.63;;;10.60;99.90;;;;;;5073404;28;20512;-66
2022/02/20 11:43:13;;;;;;;7.80;2.20;;;10.60;99.90;;;;;;5073132;28;20812;-66
2022/02/20 11:46:03;;;;;;;4.97;2.27;;;10.70;99.90;;;;;;5011504;28;20950;-66
2022/02/20 11:48:29;;;;;;;7.63;2.30;;;10.70;99.90;;;;;;5067891;28;21026;-66
2022/02/20 11:51:12;;;;;;;13.03;2.70;;;10.70;99.90;;;;;;5073367;28;20444;-65
2022/02/20 11:53:39;;;;;;;7.00;2.67;;;10.70;99.90;;;;;;5073547;28;20428;-65
2022/02/20 11:56:09;;;;;;;16.57;4.53;;;10.70;99.90;;;;;;5073424;28;20443;-65
2022/02/20 11:58:36;;;;;;;8.63;2.20;;;10.70;99.90;;;;;;5073463;28;20532;-66
2022/02/20 12:01:13;;;;;;;9.20;2.73;;;10.70;99.90;;;;;;5073324;28;20441;-66
2022/02/20 12:04:08;;;;;;;19.13;4.13;;;10.60;99.90;;;;;;5072991;28;20433;-65
2022/02/20 12:06:40;;;;;;;11.30;2.80;;;10.60;99.90;;;;;;5072928;28;20912;-65
2022/02/20 12:09:28;;;;;;;7.33;2.30;;;10.60;99.90;;;;;;5073181;28;20827;-65
2022/02/20 12:11:56;;;;;;;10.80;3.20;;;10.60;99.90;;;;;;5073298;28;20417;-66
2022/02/20 12:14:30;;;;;;;6.87;2.67;;;10.60;99.90;;;;;;5074261;28;20815;-66
2022/02/20 12:16:58;;;;;;;8.90;2.20;;;10.70;99.90;;;;;;5075119;28;20433;-67
2022/02/20 12:19:33;;;;;;;11.67;2.40;;;10.70;99.90;;;;;;5073925;28;20480;-66
2022/02/20 12:22:08;;;;;;;7.07;2.97;;;10.70;99.90;;;;;;5073346;28;20439;-67
2022/02/20 12:24:47;;;;;;;11.97;3.50;;;10.80;99.90;;;;;;5077052;28;20439;-66
2022/02/20 12:27:19;;;;;;;8.07;2.90;;;10.80;99.90;;;;;;5076943;28;21048;-67
2022/02/20 12:29:50;;;;;;;10.33;3.20;;;10.80;99.90;;;;;;5076896;28;20432;-66
2022/02/20 12:32:19;;;;;;;14.00;2.77;;;10.90;99.90;;;;;;5076862;28;20436;-66
2022/02/20 12:35:12;;;;;;;10.97;3.23;;;10.90;99.90;;;;;;5076783;28;20463;-65
2022/02/20 12:37:41;;;;;;;8.47;3.00;;;10.90;99.90;;;;;;5076456;28;20811;-65
2022/02/20 12:40:10;;;;;;;17.77;4.17;;;10.90;99.90;;;;;;5076321;28;20487;-65
2022/02/20 12:42:41;;;;;;;8.77;3.13;;;10.90;99.90;;;;;;5076714;28;20436;-65
2022/02/20 12:45:17;;;;;;;12.10;3.00;;;10.90;99.90;;;;;;5076609;28;20436;-65
2022/02/20 12:47:47;;;;;;;14.00;3.67;;;10.90;99.90;;;;;;5076528;28;20567;-65
2022/02/20 12:50:15;;;;;;;12.00;3.10;;;10.90;99.90;;;;;;5076528;28;20429;-66
2022/02/20 12:52:43;;;;;;;14.73;3.57;;;10.90;99.90;;;;;;5076967;28;20806;-66
2022/02/20 12:55:15;;;;;;;13.90;3.63;;;10.90;99.90;;;;;;5076502;28;20421;-66